Terminal Aerodrome Forecast
Issued by NWS

Current Version | Previous Version | Graphics & Text | Print | Product List | Glossary On
Versions: 1 2 3 4 5 6 7 8 9 10 11 12 13 14 15 16 17 18 19 20 21 22 23 24 25
000
FTUS41 KRNK 281722
TAFLWB
TAF
KLWB 281722Z 2818/2918 30007KT P6SM SCT070
      TEMPO 2818/2822 4SM SHRA OVC025
     FM282300 30007KT P6SM VCSH BKN050
     FM290200 30004KT P6SM SCT050
     FM290900 32002KT P6SM BKN020
     FM291600 33005KT P6SM SCT035=

USA.gov is the U.S. government's official web portal to all federal, state and local government web resources and services.